Sapporo, Japón

8:37 AM JST en Agosto 23, 2014 (GMT +0900)
New Chitose | Change Station
CLOSE
Current Station
Aeropuerto
Location: Chitose AB,
Altura: 98 ft
Estaciones meteorológicas cercanas

Alt 98 ft 42.77 °N, 141.69 °E | Updated 7 minutes ago

Light Rain Showers
Lluvia débil
72 ° F
Sensación térmica 72 ° F
N
15
Viento Variable Viento desde SSE

Hoy
Alta -- | Baja -- ° F
--% Posibilidad de precipitaciones
Ayer
Alta -- | Baja -- ° F
Precip. -- pul
4:48 AM 6:25 PM
Creciente menguante, 6% visible
Presión 29.77 pul
Visibilidad 3.7 Millas
Nubes Muy nublado 300 ft
Muy nublado 400 ft
Punto de rocío 68 ° F
Humedad 88%
Precipitaciones 0.00 pul
Espesor de la nieve No disponible.
UV 2 de una escala de 12
Polen No disponible.
Calidad del aire No disponible.
Flu Activity No disponible.
METAR RJCC 222330Z 16013KT 6000 -SHRA BR BKN003 BKN004 22/20 Q1008 RMK 5ST003 7ST004 A2979 BR W

More Conditions Fewer Conditions

Presión 29.77 pul
Visibilidad 3.7 Millas
Nubes Muy nublado 300 ft
Muy nublado 400 ft
Punto de rocío 68 ° F
Humedad 88%
Precipitaciones 0.00 pul
Espesor de la nieve No disponible.
UV 2 de una escala de 12
Polen No disponible.
Calidad del aire No disponible.
Flu Activity No disponible.
METAR RJCC 222330Z 16013KT 6000 -SHRA BR BKN003 BKN004 22/20 Q1008 RMK 5ST003 7ST004 A2979 BR W

More Conditions Fewer Conditions

10-Day Weather Forecast

Almanac

Astronomía

Aug. 23, 2014 Salida Puesta
Hora real 4:48 AM JST 6:25 PM JST
Crepúsculo civil 4:18 AM JST 6:55 PM JST
Crepúsculo náutico 3:42 AM JST 7:31 PM JST
Crepúsculo astronómico 3:03 AM JST 8:10 PM JST
Luna 2:28 AM JST (8/23) 4:48 PM JST (8/23)
Horas de luz 14h 36m
Horas de luz
13h 36m
Tomorrow will be 2m 43s shorter.
Creciente menguante, 6% of the Moon is Illuminated
Ago 22
Creciente menguante
Ago 25
Nueva
Sep 2
Cuarto creciente
Sep 8
Luna llena
Sep 15
Cuarto menguante

Extremos de ayer

Máximos del país Bajas del país

Community

WunderPhotos

Upload Photos

1,746,306 ¡fotos cargadas!

WunderBlogs® & News

By Dr. Jeff Masters
Director of Meteorology, Weather Underground
By Kari Strenfel
Meteorologist, Weather Underground
By Christopher C. Burt
Weather Historian, Weather Underground
August 22, 2014
August 22, 2014
August 22, 2014

Nearby

Calidad del aire

Not available.

Grosos de nieve

Not available.

Actividad de terremotos

Ciudad Distance Mag. Tiempo y dato
No hay informes recientes de la actividad sísmica.
Magnitud mínima muestra es 2,5.

Temperaturas de aguas costeras

Lugar Temperatura
Sin partes meteorológicos de las estaciones

Estaciones meteorológicas cercanas